createdAt,value
2023-04-21T00:00:40.494Z,990.20
2023-04-21T00:01:40.459Z,990.26
2023-04-21T00:02:40.520Z,990.27
2023-04-21T00:03:40.473Z,990.21
2023-04-21T00:04:40.439Z,990.28
2023-04-21T00:05:40.485Z,990.34
2023-04-21T00:06:40.449Z,990.31
2023-04-21T00:07:40.393Z,990.21
2023-04-21T00:08:40.405Z,990.29
2023-04-21T00:09:40.356Z,990.26
2023-04-21T00:10:40.371Z,990.21
2023-04-21T00:11:40.345Z,990.23
2023-04-21T00:12:40.367Z,990.30
2023-04-21T00:13:40.360Z,990.15
2023-04-21T00:14:40.341Z,990.21
2023-04-21T00:15:40.350Z,990.25
2023-04-21T00:16:40.367Z,990.10
2023-04-21T00:17:40.322Z,990.15
2023-04-21T00:18:40.255Z,990.18
2023-04-21T00:19:40.278Z,990.11
2023-04-21T00:20:40.242Z,990.07
2023-04-21T00:21:40.251Z,990.11
2023-04-21T00:22:40.238Z,990.16
2023-04-21T00:23:40.272Z,990.15
2023-04-21T00:24:40.204Z,990.18
2023-04-21T00:25:40.220Z,990.22
2023-04-21T00:26:40.194Z,990.17
2023-04-21T00:27:40.268Z,990.24
2023-04-21T00:28:40.163Z,990.27
2023-04-21T00:29:40.160Z,990.27
2023-04-21T00:30:40.220Z,990.22
2023-04-21T00:31:40.271Z,990.25
2023-04-21T00:32:40.133Z,990.26
2023-04-21T00:33:40.111Z,990.20
2023-04-21T00:34:40.088Z,990.26
2023-04-21T00:35:40.153Z,990.34
2023-04-21T00:36:40.115Z,990.28
2023-04-21T00:37:40.117Z,990.24
2023-04-21T00:38:40.084Z,990.27
2023-04-21T00:39:40.120Z,990.32
2023-04-21T00:40:40.087Z,990.32
2023-04-21T00:41:40.098Z,990.35
2023-04-21T00:42:40.024Z,990.37
2023-04-21T00:43:40.054Z,990.39
2023-04-21T00:44:39.991Z,990.40
2023-04-21T00:45:40.006Z,990.39
2023-04-21T00:46:40.014Z,990.46
2023-04-21T00:47:40.029Z,990.44
2023-04-21T00:48:39.955Z,990.43
2023-04-21T00:49:39.986Z,990.41
2023-04-21T00:50:39.902Z,990.45
2023-04-21T00:51:39.957Z,990.37
2023-04-21T00:52:39.969Z,990.26
2023-04-21T00:53:39.916Z,990.36
2023-04-21T00:54:39.870Z,990.39
2023-04-21T00:55:39.904Z,990.34
2023-04-21T00:56:39.889Z,990.36
2023-04-21T00:57:39.948Z,990.37
2023-04-21T00:58:39.861Z,990.33
2023-04-21T00:59:39.885Z,990.32
2023-04-21T01:00:39.911Z,990.30
2023-04-21T01:01:39.915Z,990.26
2023-04-21T01:02:40.001Z,990.27
2023-04-21T01:03:40.044Z,990.38
2023-04-21T01:04:39.769Z,990.30
2023-04-21T01:05:39.812Z,990.29
2023-04-21T01:06:39.782Z,990.35
2023-04-21T01:07:39.793Z,990.36
2023-04-21T01:08:39.765Z,990.36
2023-04-21T01:09:39.721Z,990.37
2023-04-21T01:10:39.748Z,990.35
2023-04-21T01:11:39.743Z,990.31
2023-04-21T01:12:39.758Z,990.34
2023-04-21T01:13:39.762Z,990.34
2023-04-21T01:14:39.747Z,990.40
2023-04-21T01:15:39.687Z,990.37
2023-04-21T01:16:39.748Z,990.31
2023-04-21T01:17:39.737Z,990.32
2023-04-21T01:18:39.635Z,990.32
2023-04-21T01:19:39.648Z,990.29
2023-04-21T01:20:39.631Z,990.33
2023-04-21T01:21:39.627Z,990.34
2023-04-21T01:22:39.624Z,990.32
2023-04-21T01:23:39.628Z,990.38
2023-04-21T01:24:39.607Z,990.37
2023-04-21T01:25:39.583Z,990.46
2023-04-21T01:26:39.583Z,990.38
2023-04-21T01:27:39.639Z,990.47
2023-04-21T01:28:39.568Z,990.41
2023-04-21T01:29:39.509Z,990.43
2023-04-21T01:30:39.613Z,990.38
2023-04-21T01:31:39.673Z,990.45
2023-04-21T01:32:39.559Z,990.40
2023-04-21T01:33:39.544Z,990.44
2023-04-21T01:34:39.458Z,990.45
2023-04-21T01:35:39.487Z,990.42
2023-04-21T01:36:39.499Z,990.54
2023-04-21T01:37:39.519Z,990.43
2023-04-21T01:38:39.472Z,990.45
2023-04-21T01:39:39.502Z,990.43
2023-04-21T01:40:39.440Z,990.47
2023-04-21T01:41:39.430Z,990.46
2023-04-21T01:42:39.419Z,990.51
2023-04-21T01:43:39.526Z,990.48
2023-04-21T01:44:39.409Z,990.50
2023-04-21T01:45:39.460Z,990.37
2023-04-21T01:46:39.351Z,990.46
2023-04-21T01:47:39.392Z,990.43
2023-04-21T01:48:39.323Z,990.43
2023-04-21T01:49:39.337Z,990.36
2023-04-21T01:50:39.347Z,990.39
2023-04-21T01:51:39.375Z,990.44
2023-04-21T01:52:39.309Z,990.51
2023-04-21T01:53:39.294Z,990.51
2023-04-21T01:54:39.273Z,990.42
2023-04-21T01:55:39.320Z,990.43
2023-04-21T01:56:39.350Z,990.46
2023-04-21T01:57:39.502Z,990.46
2023-04-21T01:58:39.265Z,990.50
2023-04-21T01:59:39.279Z,990.38
2023-04-21T02:00:39.244Z,990.45
2023-04-21T02:01:39.254Z,990.42
2023-04-21T02:02:39.414Z,990.45
2023-04-21T02:03:39.353Z,990.38
2023-04-21T02:04:39.299Z,990.44
2023-04-21T02:05:39.163Z,990.44
2023-04-21T02:06:39.199Z,990.38
2023-04-21T02:07:39.240Z,990.43
2023-04-21T02:08:39.169Z,990.47
2023-04-21T02:09:39.133Z,990.42
2023-04-21T02:10:39.149Z,990.44
2023-04-21T02:11:39.123Z,990.35
2023-04-21T02:12:39.111Z,990.46
2023-04-21T02:13:39.175Z,990.36
2023-04-21T02:14:39.090Z,990.34
2023-04-21T02:15:39.139Z,990.36
2023-04-21T02:16:39.155Z,990.41
2023-04-21T02:17:39.056Z,990.43
2023-04-21T02:18:39.070Z,990.42
2023-04-21T02:19:39.001Z,990.40
2023-04-21T02:20:39.043Z,990.42
2023-04-21T02:21:39.004Z,990.39
2023-04-21T02:22:38.998Z,990.42
2023-04-21T02:23:38.968Z,990.35
2023-04-21T02:24:38.939Z,990.30
2023-04-21T02:25:38.976Z,990.33
2023-04-21T02:26:38.976Z,990.42
2023-04-21T02:27:39.945Z,990.36
2023-04-21T02:28:38.956Z,990.32
2023-04-21T02:29:38.942Z,990.28
2023-04-21T02:30:40.012Z,990.32
2023-04-21T02:31:54.189Z,990.31
2023-04-21T02:32:41.009Z,990.42
2023-04-21T02:33:38.955Z,990.26
2023-04-21T02:34:38.900Z,990.38
2023-04-21T02:35:38.869Z,990.34
2023-04-21T02:36:38.849Z,990.33
2023-04-21T02:37:38.872Z,990.28
2023-04-21T02:38:38.874Z,990.31
2023-04-21T02:39:38.853Z,990.23
2023-04-21T02:40:38.828Z,990.35
2023-04-21T02:41:38.807Z,990.32
2023-04-21T02:42:38.829Z,990.31
2023-04-21T02:43:38.795Z,990.31
2023-04-21T02:44:38.791Z,990.36
2023-04-21T02:45:38.773Z,990.28
2023-04-21T02:46:38.766Z,990.30
2023-04-21T02:47:38.773Z,990.25
2023-04-21T02:48:38.746Z,990.31
2023-04-21T02:49:38.721Z,990.37
2023-04-21T02:50:38.715Z,990.33
2023-04-21T02:51:38.724Z,990.32
2023-04-21T02:52:38.709Z,990.31
2023-04-21T02:53:38.698Z,990.31
2023-04-21T02:54:38.696Z,990.32
2023-04-21T02:55:38.647Z,990.34
2023-04-21T02:56:38.675Z,990.33
2023-04-21T02:57:38.689Z,990.28
2023-04-21T02:58:38.636Z,990.36
2023-04-21T02:59:38.638Z,990.28
2023-04-21T03:00:38.611Z,990.26
2023-04-21T03:01:38.589Z,990.36
2023-04-21T03:02:38.792Z,990.30
2023-04-21T03:03:38.662Z,990.30
2023-04-21T03:04:38.707Z,990.34
2023-04-21T03:05:38.584Z,990.34
2023-04-21T03:06:38.596Z,990.25
2023-04-21T03:07:38.545Z,990.25
2023-04-21T03:08:38.577Z,990.28
2023-04-21T03:09:38.557Z,990.24
2023-04-21T03:10:38.491Z,990.27
2023-04-21T03:11:38.555Z,990.36
2023-04-21T03:12:38.484Z,990.21
2023-04-21T03:13:38.553Z,990.24
2023-04-21T03:14:38.486Z,990.25
2023-04-21T03:15:38.485Z,990.25
2023-04-21T03:16:38.514Z,990.22
2023-04-21T03:17:38.445Z,990.29
2023-04-21T03:18:38.486Z,990.20
2023-04-21T03:19:38.519Z,990.25
2023-04-21T03:20:39.428Z,990.20
2023-04-21T03:21:38.397Z,990.23
2023-04-21T03:22:38.410Z,990.23
2023-04-21T03:23:38.384Z,990.21
2023-04-21T03:24:38.378Z,990.20
2023-04-21T03:25:38.427Z,990.18
2023-04-21T03:26:38.435Z,990.25
2023-04-21T03:27:38.348Z,990.29
2023-04-21T03:28:38.435Z,990.21
2023-04-21T03:29:38.386Z,990.19
2023-04-21T03:30:38.305Z,990.24
2023-04-21T03:31:38.339Z,990.27
2023-04-21T03:32:38.312Z,990.26
2023-04-21T03:33:38.341Z,990.22
2023-04-21T03:34:38.314Z,990.15
2023-04-21T03:35:38.279Z,990.25
2023-04-21T03:36:38.285Z,990.22
2023-04-21T03:37:38.315Z,990.19
2023-04-21T03:38:38.292Z,990.19
2023-04-21T03:39:38.243Z,990.18
2023-04-21T03:40:38.255Z,990.15
2023-04-21T03:41:38.373Z,990.12
2023-04-21T03:42:38.230Z,990.15
2023-04-21T03:43:38.226Z,990.22
2023-04-21T03:44:38.197Z,990.18
2023-04-21T03:45:38.189Z,990.28
2023-04-21T03:46:38.188Z,990.26
2023-04-21T03:47:38.220Z,990.18
2023-04-21T03:48:38.216Z,990.20
2023-04-21T03:49:38.097Z,990.24
2023-04-21T03:50:38.119Z,990.25
2023-04-21T03:51:38.118Z,990.27
2023-04-21T03:52:38.096Z,990.30
2023-04-21T03:53:38.066Z,990.35
2023-04-21T03:54:38.117Z,990.36
2023-04-21T03:55:38.072Z,990.35
2023-04-21T03:56:38.149Z,990.34
2023-04-21T03:57:38.071Z,990.36
2023-04-21T03:58:38.066Z,990.41
2023-04-21T03:59:38.015Z,990.48
2023-04-21T04:00:38.016Z,990.38
2023-04-21T04:01:38.017Z,990.40
2023-04-21T04:02:38.140Z,990.38
2023-04-21T04:03:38.137Z,990.35
2023-04-21T04:04:38.245Z,990.32
2023-04-21T04:05:38.092Z,990.40
2023-04-21T04:06:37.956Z,990.35
2023-04-21T04:07:37.962Z,990.28
2023-04-21T04:08:37.978Z,990.32
2023-04-21T04:09:37.950Z,990.31
2023-04-21T04:10:37.942Z,990.39
2023-04-21T04:11:37.890Z,990.31
2023-04-21T04:12:37.878Z,990.28
2023-04-21T04:13:37.949Z,990.33
2023-04-21T04:14:37.942Z,990.41
2023-04-21T04:15:37.873Z,990.34
2023-04-21T04:16:37.866Z,990.26
2023-04-21T04:17:37.913Z,990.31
2023-04-21T04:18:37.823Z,990.29
2023-04-21T04:19:37.799Z,990.31
2023-04-21T04:20:37.825Z,990.33
2023-04-21T04:21:37.792Z,990.30
2023-04-21T04:22:37.867Z,990.22
2023-04-21T04:23:37.839Z,990.25
2023-04-21T04:24:37.782Z,990.29
2023-04-21T04:25:37.770Z,990.24
2023-04-21T04:26:37.749Z,990.29
2023-04-21T04:27:37.815Z,990.28
2023-04-21T04:28:37.739Z,990.24
2023-04-21T04:29:37.695Z,990.23
2023-04-21T04:30:37.754Z,990.26
2023-04-21T04:31:37.750Z,990.35
2023-04-21T04:32:37.733Z,990.23
2023-04-21T04:33:37.668Z,990.27
2023-04-21T04:34:37.766Z,990.32
2023-04-21T04:35:37.652Z,990.32
2023-04-21T04:36:37.634Z,990.25
2023-04-21T04:37:37.604Z,990.22
2023-04-21T04:38:37.630Z,990.23
2023-04-21T04:39:37.607Z,990.27
2023-04-21T04:40:37.592Z,990.25
2023-04-21T04:41:37.577Z,990.29
2023-04-21T04:42:37.554Z,990.33
2023-04-21T04:43:37.575Z,990.39
2023-04-21T04:44:37.551Z,990.33
2023-04-21T04:45:37.547Z,990.38
2023-04-21T04:46:37.590Z,990.32
2023-04-21T04:47:37.586Z,990.28
2023-04-21T04:48:37.545Z,990.36
2023-04-21T04:49:37.499Z,990.32
2023-04-21T04:50:37.472Z,990.28
2023-04-21T04:51:37.569Z,990.40
2023-04-21T04:52:37.463Z,990.34
2023-04-21T04:53:37.506Z,990.32
2023-04-21T04:54:37.451Z,990.35
2023-04-21T04:55:37.586Z,990.35
2023-04-21T04:56:37.401Z,990.38
2023-04-21T04:57:37.504Z,990.44
2023-04-21T04:58:37.573Z,990.40
2023-04-21T04:59:37.408Z,990.45
2023-04-21T05:00:37.609Z,990.49
2023-04-21T05:01:37.495Z,990.42
2023-04-21T05:02:37.598Z,990.42
2023-04-21T05:03:37.452Z,990.44
2023-04-21T05:04:37.459Z,990.48
2023-04-21T05:05:37.318Z,990.57
2023-04-21T05:06:37.377Z,990.52
2023-04-21T05:07:37.411Z,990.62
2023-04-21T05:08:37.313Z,990.54
2023-04-21T05:09:37.383Z,990.53
2023-04-21T05:10:37.348Z,990.54
2023-04-21T05:11:37.272Z,990.57
2023-04-21T05:12:37.312Z,990.57
2023-04-21T05:13:39.542Z,990.52
2023-04-21T05:14:37.282Z,990.60
2023-04-21T05:15:37.268Z,990.53
2023-04-21T05:16:37.334Z,990.61
2023-04-21T05:17:37.296Z,990.58
2023-04-21T05:18:38.210Z,990.54
2023-04-21T05:19:37.223Z,990.60
2023-04-21T05:20:37.203Z,990.56
2023-04-21T05:21:37.201Z,990.57
2023-04-21T05:22:37.191Z,990.60
2023-04-21T05:23:37.228Z,990.60
2023-04-21T05:24:37.189Z,990.62
2023-04-21T05:25:37.165Z,990.68
2023-04-21T05:26:37.143Z,990.75
2023-04-21T05:27:37.137Z,990.82
2023-04-21T05:28:37.172Z,990.71
2023-04-21T05:29:37.194Z,990.82
2023-04-21T05:30:37.222Z,990.76
2023-04-21T05:31:37.127Z,990.83
2023-04-21T05:32:37.155Z,990.82
2023-04-21T05:33:37.055Z,990.76
2023-04-21T05:34:37.175Z,990.74
2023-04-21T05:35:38.017Z,990.75
2023-04-21T05:36:38.078Z,990.73
2023-04-21T05:37:37.062Z,990.73
2023-04-21T05:38:37.064Z,990.66
2023-04-21T05:39:37.033Z,990.70
2023-04-21T05:40:37.010Z,990.69
2023-04-21T05:41:37.038Z,990.72
2023-04-21T05:42:37.009Z,990.74
2023-04-21T05:43:36.995Z,990.76
2023-04-21T05:44:36.972Z,990.80
2023-04-21T05:45:37.073Z,990.75
2023-04-21T05:46:37.022Z,990.77
2023-04-21T05:47:36.992Z,990.75
2023-04-21T05:48:36.974Z,990.83
2023-04-21T05:49:36.974Z,990.81
2023-04-21T05:50:36.993Z,990.81
2023-04-21T05:51:36.908Z,990.84
2023-04-21T05:52:36.915Z,990.93
2023-04-21T05:53:36.988Z,990.82
2023-04-21T05:54:36.986Z,990.79
2023-04-21T05:55:36.956Z,990.78
2023-04-21T05:56:37.020Z,990.77
2023-04-21T05:57:36.923Z,990.77
2023-04-21T05:58:36.908Z,990.87
2023-04-21T05:59:36.903Z,990.85
2023-04-21T06:00:36.823Z,990.80
2023-04-21T06:01:36.888Z,990.88
2023-04-21T06:02:37.001Z,990.83
2023-04-21T06:03:36.821Z,990.78
2023-04-21T06:04:36.956Z,990.73
2023-04-21T06:05:36.809Z,990.80
2023-04-21T06:06:36.734Z,990.82
2023-04-21T06:07:36.716Z,990.69
2023-04-21T06:08:36.737Z,990.77
2023-04-21T06:09:36.778Z,990.66
2023-04-21T06:10:36.708Z,990.67
2023-04-21T06:11:36.741Z,990.70
2023-04-21T06:12:36.727Z,990.72
2023-04-21T06:13:38.226Z,990.72
2023-04-21T06:14:36.654Z,990.60
2023-04-21T06:15:36.684Z,990.71
2023-04-21T06:16:36.736Z,990.66
2023-04-21T06:17:36.696Z,990.64
2023-04-21T06:18:36.614Z,990.64
2023-04-21T06:19:36.604Z,990.70
2023-04-21T06:20:36.664Z,990.69
2023-04-21T06:21:36.620Z,990.70
2023-04-21T06:22:36.601Z,990.67
2023-04-21T06:23:36.597Z,990.75
2023-04-21T06:24:36.547Z,990.69
2023-04-21T06:25:36.561Z,990.71
2023-04-21T06:26:36.461Z,990.69
2023-04-21T06:27:36.499Z,990.72
2023-04-21T06:28:37.510Z,990.73
2023-04-21T06:29:36.534Z,990.75
2023-04-21T06:30:36.482Z,990.74
2023-04-21T06:31:36.545Z,990.71
2023-04-21T06:32:36.498Z,990.66
2023-04-21T06:33:36.504Z,990.68
2023-04-21T06:34:36.407Z,990.66
2023-04-21T06:35:36.436Z,990.63
2023-04-21T06:36:36.448Z,990.56
2023-04-21T06:37:36.417Z,990.61
2023-04-21T06:38:36.393Z,990.59
2023-04-21T06:39:36.401Z,990.66
2023-04-21T06:40:36.436Z,990.53
2023-04-21T06:41:36.410Z,990.57
2023-04-21T06:42:36.376Z,990.53
2023-04-21T06:43:36.321Z,990.57
2023-04-21T06:44:36.350Z,990.56
2023-04-21T06:45:36.330Z,990.59
2023-04-21T06:46:36.484Z,990.59
2023-04-21T06:47:36.453Z,990.58
2023-04-21T06:48:36.352Z,990.58
2023-04-21T06:49:36.369Z,990.55
2023-04-21T06:50:36.235Z,990.57
2023-04-21T06:51:36.208Z,990.51
2023-04-21T06:52:36.227Z,990.52
2023-04-21T06:53:36.312Z,990.46
2023-04-21T06:54:36.249Z,990.51
2023-04-21T06:55:36.335Z,990.44
2023-04-21T06:56:36.260Z,990.44
2023-04-21T07:00:18.244Z,990.47
2023-04-21T07:00:35.815Z,990.53
2023-04-21T07:01:35.956Z,990.51
2023-04-21T07:02:35.845Z,990.48
2023-04-21T07:03:35.928Z,990.50
2023-04-21T07:04:35.805Z,990.47
2023-04-21T07:05:35.768Z,990.36
2023-04-21T07:06:35.861Z,990.43
2023-04-21T07:12:36.430Z,990.40
2023-04-21T07:13:04.418Z,990.40
2023-04-21T07:14:04.328Z,990.41
2023-04-21T07:15:04.724Z,990.37
2023-04-21T07:16:04.281Z,990.35
2023-04-21T07:17:04.347Z,990.35
2023-04-21T07:18:04.301Z,990.31
2023-04-21T07:19:04.287Z,990.39
2023-04-21T07:20:04.266Z,990.43
2023-04-21T07:21:04.253Z,990.45
2023-04-21T07:22:04.228Z,990.47
2023-04-21T07:23:04.230Z,990.48
2023-04-21T07:24:04.255Z,990.49
2023-04-21T07:25:25.868Z,990.51
2023-04-21T07:26:04.249Z,990.53
2023-04-21T07:27:04.187Z,990.45
2023-04-21T07:28:04.186Z,990.49
2023-04-21T07:29:04.391Z,990.38
2023-04-21T07:30:04.172Z,990.43
2023-04-21T07:31:04.198Z,990.44
2023-04-21T07:32:04.136Z,990.44
2023-04-21T07:33:04.185Z,990.41
2023-04-21T07:34:04.141Z,990.37
2023-04-21T07:35:04.127Z,990.39
2023-04-21T07:36:04.103Z,990.37
2023-04-21T07:37:04.141Z,990.41
2023-04-21T07:38:04.065Z,990.44
2023-04-21T07:39:04.097Z,990.39
2023-04-21T07:40:04.060Z,990.41
2023-04-21T07:41:04.118Z,990.41
2023-04-21T07:42:04.027Z,990.40
2023-04-21T07:43:04.094Z,990.33
2023-04-21T07:44:04.290Z,990.44
2023-04-21T07:45:04.011Z,990.36
2023-04-21T07:46:04.021Z,990.37
2023-04-21T07:47:03.990Z,990.26
2023-04-21T07:48:04.083Z,990.32
2023-04-21T07:49:04.255Z,990.27
2023-04-21T07:50:03.938Z,990.32
2023-04-21T07:51:03.942Z,990.24
2023-04-21T07:52:03.965Z,990.22
2023-04-21T07:53:03.922Z,990.26
2023-04-21T07:54:03.910Z,990.18
2023-04-21T07:55:03.912Z,990.15
2023-04-21T07:56:03.940Z,990.13
2023-04-21T07:57:03.857Z,990.18
2023-04-21T07:58:03.853Z,990.17
2023-04-21T07:59:03.892Z,990.16
2023-04-21T08:00:03.935Z,990.23
2023-04-21T08:01:03.826Z,990.16
2023-04-21T08:02:34.093Z,990.15
2023-04-21T08:03:16.214Z,990.08
2023-04-21T08:04:12.610Z,990.04
2023-04-21T08:05:04.042Z,990.10
2023-04-21T08:06:05.089Z,990.12
2023-04-21T08:07:05.305Z,990.10
2023-04-21T08:08:04.924Z,990.11
2023-04-21T08:09:04.894Z,990.06
2023-04-21T08:10:04.911Z,990.11
2023-04-21T08:11:05.002Z,990.09
2023-04-21T08:12:04.928Z,990.09
2023-04-21T08:13:04.915Z,990.10
2023-04-21T08:14:04.859Z,990.08
2023-04-21T08:15:04.837Z,990.09
2023-04-21T08:16:04.843Z,990.14
2023-04-21T08:17:04.806Z,990.12
2023-04-21T08:18:04.901Z,990.12
2023-04-21T08:19:04.860Z,990.15
2023-04-21T08:20:04.838Z,990.11
2023-04-21T08:21:04.878Z,990.08
2023-04-21T08:22:04.841Z,990.09
2023-04-21T08:23:04.861Z,990.07
2023-04-21T08:24:04.751Z,990.08
2023-04-21T08:25:04.879Z,990.09
2023-04-21T08:26:04.806Z,990.12
2023-04-21T08:27:04.753Z,990.02
2023-04-21T08:28:04.760Z,990.08
2023-04-21T08:29:04.788Z,990.02
2023-04-21T08:30:04.762Z,990.04
2023-04-21T08:31:04.852Z,990.02
2023-04-21T08:32:04.729Z,990.02
2023-04-21T08:33:04.735Z,990.04
2023-04-21T08:34:04.740Z,989.99
2023-04-21T08:35:04.737Z,989.86
2023-04-21T08:36:12.270Z,989.92
2023-04-21T08:37:06.644Z,989.90
2023-04-21T08:38:04.626Z,989.88
2023-04-21T08:39:04.641Z,989.92
2023-04-21T08:40:04.613Z,989.91
2023-04-21T08:41:04.587Z,989.86
2023-04-21T08:42:04.637Z,989.91
2023-04-21T08:43:04.602Z,989.88
2023-04-21T08:44:04.558Z,989.87
2023-04-21T08:45:04.575Z,989.90
2023-04-21T08:46:04.651Z,989.89
2023-04-21T08:47:04.548Z,989.90
2023-04-21T08:48:04.646Z,989.87
2023-04-21T08:49:04.521Z,989.95
2023-04-21T08:50:04.515Z,989.90
2023-04-21T08:51:04.516Z,989.93
2023-04-21T08:52:04.513Z,989.84
2023-04-21T08:53:04.483Z,989.91
2023-04-21T08:54:04.497Z,989.92
2023-04-21T08:55:04.489Z,989.89
2023-04-21T08:56:11.349Z,989.82
2023-04-21T08:57:15.505Z,989.84
2023-04-21T08:58:06.484Z,989.84
2023-04-21T08:59:04.425Z,989.83
2023-04-21T09:00:06.397Z,989.78
2023-04-21T09:01:04.473Z,989.82
2023-04-21T09:02:05.501Z,989.75
2023-04-21T09:03:08.584Z,989.67
2023-04-21T09:04:05.488Z,989.69
2023-04-21T09:05:04.647Z,989.71
2023-04-21T09:06:04.677Z,989.69
2023-04-21T09:07:04.383Z,989.62
2023-04-21T09:08:04.369Z,989.59
2023-04-21T09:09:04.328Z,989.54
2023-04-21T09:10:04.428Z,989.59
2023-04-21T09:11:04.344Z,989.66
2023-04-21T09:12:04.297Z,989.60
2023-04-21T09:13:04.285Z,989.56
2023-04-21T09:14:05.266Z,989.60
2023-04-21T09:15:04.311Z,989.58
2023-04-21T09:16:06.617Z,989.57
2023-04-21T09:17:04.605Z,989.61
2023-04-21T09:18:04.313Z,989.58
2023-04-21T09:19:04.332Z,989.56
2023-04-21T09:20:04.254Z,989.61
2023-04-21T09:21:04.293Z,989.56
2023-04-21T09:22:04.248Z,989.61
2023-04-21T09:23:04.242Z,989.62
2023-04-21T09:24:04.225Z,989.58
2023-04-21T09:25:04.185Z,989.62
2023-04-21T09:26:04.209Z,989.61
2023-04-21T09:27:04.179Z,989.57
2023-04-21T09:28:04.213Z,989.59
2023-04-21T09:29:04.205Z,989.56
2023-04-21T09:30:04.112Z,989.64
2023-04-21T09:31:04.266Z,989.50
2023-04-21T09:32:04.119Z,989.54
2023-04-21T09:33:13.364Z,989.58
2023-04-21T09:34:06.148Z,989.53
2023-04-21T09:35:04.122Z,989.57
2023-04-21T09:36:04.121Z,989.56
2023-04-21T09:37:04.086Z,989.55
2023-04-21T09:38:04.044Z,989.53
2023-04-21T09:39:29.068Z,989.58
2023-04-21T09:40:06.083Z,989.61
2023-04-21T09:41:05.069Z,989.52
2023-04-21T09:42:04.003Z,989.54
2023-04-21T09:43:04.036Z,989.46
2023-04-21T09:44:04.071Z,989.50
2023-04-21T09:45:16.827Z,989.60
2023-04-21T09:46:06.131Z,989.58
2023-04-21T09:47:04.010Z,989.57
2023-04-21T09:48:04.035Z,989.62
2023-04-21T09:49:05.028Z,989.61
2023-04-21T09:50:03.940Z,989.57
2023-04-21T09:51:25.406Z,989.58
2023-04-21T09:52:18.393Z,989.56
2023-04-21T09:53:05.947Z,989.62
2023-04-21T09:54:04.005Z,989.63
2023-04-21T09:55:03.900Z,989.62
2023-04-21T09:56:03.931Z,989.67
2023-04-21T09:57:03.972Z,989.62
2023-04-21T09:58:03.898Z,989.63
2023-04-21T09:59:03.893Z,989.60
2023-04-21T10:00:03.864Z,989.54
2023-04-21T10:01:04.059Z,989.54
2023-04-21T10:02:03.936Z,989.53
2023-04-21T10:03:04.066Z,989.53
2023-04-21T10:04:03.906Z,989.56
2023-04-21T10:05:03.971Z,989.54
2023-04-21T10:06:04.016Z,989.53
2023-04-21T10:07:03.832Z,989.61
2023-04-21T10:08:03.791Z,989.55
2023-04-21T10:09:03.773Z,989.59
2023-04-21T10:10:03.789Z,989.55
2023-04-21T10:11:03.776Z,989.57
2023-04-21T10:12:03.782Z,989.59
2023-04-21T10:13:03.746Z,989.56
2023-04-21T10:14:03.727Z,989.52
2023-04-21T10:15:03.730Z,989.52
2023-04-21T10:16:03.857Z,989.57
2023-04-21T10:17:03.719Z,989.65
2023-04-21T10:18:03.713Z,989.58
2023-04-21T10:19:03.713Z,989.59
2023-04-21T10:20:03.703Z,989.60
2023-04-21T10:21:03.945Z,989.59
2023-04-21T10:22:03.736Z,989.57
2023-04-21T10:23:03.669Z,989.52
2023-04-21T10:24:03.651Z,989.61
2023-04-21T10:25:03.646Z,989.63
2023-04-21T10:26:03.641Z,989.61
2023-04-21T10:27:03.621Z,989.54
2023-04-21T10:28:03.644Z,989.50
2023-04-21T10:29:03.614Z,989.50
2023-04-21T10:30:03.638Z,989.50
2023-04-21T10:31:03.605Z,989.52
2023-04-21T10:32:03.671Z,989.54
2023-04-21T10:33:03.707Z,989.55
2023-04-21T10:34:03.548Z,989.48
2023-04-21T10:35:03.588Z,989.53
2023-04-21T10:36:03.559Z,989.43
2023-04-21T10:37:03.472Z,989.52
2023-04-21T10:38:03.505Z,989.50
2023-04-21T10:39:03.503Z,989.49
2023-04-21T10:40:03.516Z,989.50
2023-04-21T10:41:04.504Z,989.38
2023-04-21T10:42:03.496Z,989.46
2023-04-21T10:43:03.423Z,989.32
2023-04-21T10:44:03.437Z,989.51
2023-04-21T10:45:03.396Z,989.44
2023-04-21T10:46:03.432Z,989.47
2023-04-21T10:47:03.525Z,989.26
2023-04-21T10:48:03.475Z,989.24
2023-04-21T10:49:04.043Z,989.33
2023-04-21T10:50:04.276Z,989.31
2023-04-21T10:51:03.420Z,989.21
2023-04-21T10:52:03.370Z,989.23
2023-04-21T10:53:03.368Z,989.24
2023-04-21T10:54:03.367Z,989.21
2023-04-21T10:55:03.360Z,989.16
2023-04-21T10:56:03.368Z,989.16
2023-04-21T10:57:03.400Z,989.14
2023-04-21T10:58:03.322Z,989.22
2023-04-21T10:59:03.335Z,989.18
2023-04-21T11:00:03.388Z,989.17
2023-04-21T11:01:03.318Z,989.19
2023-04-21T11:02:03.322Z,989.12
2023-04-21T11:03:03.401Z,989.18
2023-04-21T11:04:03.362Z,989.26
2023-04-21T11:05:03.338Z,989.20
2023-04-21T11:06:03.275Z,989.12
2023-04-21T11:07:03.261Z,989.09
2023-04-21T11:08:03.359Z,989.14
2023-04-21T11:09:03.255Z,989.05
2023-04-21T11:10:03.191Z,989.09
2023-04-21T11:11:03.192Z,989.07
2023-04-21T11:12:03.172Z,989.06
2023-04-21T11:13:03.272Z,989.07
2023-04-21T11:14:03.181Z,988.96
2023-04-21T11:15:03.200Z,989.01
2023-04-21T11:16:03.238Z,988.98
2023-04-21T11:17:03.189Z,988.87
2023-04-21T11:18:03.154Z,988.94
2023-04-21T11:19:03.119Z,988.95
2023-04-21T11:20:03.085Z,988.92
2023-04-21T11:21:03.121Z,988.97
2023-04-21T11:22:03.107Z,988.93
2023-04-21T11:23:03.107Z,988.92
2023-04-21T11:24:03.065Z,988.92
2023-04-21T11:25:03.061Z,989.02
2023-04-21T11:26:03.050Z,988.95
2023-04-21T11:27:03.046Z,988.99
2023-04-21T11:28:02.997Z,988.93
2023-04-21T11:29:03.047Z,988.95
2023-04-21T11:30:03.004Z,988.92
2023-04-21T11:31:03.083Z,988.91
2023-04-21T11:32:03.024Z,988.88
2023-04-21T11:33:03.082Z,988.82
2023-04-21T11:34:02.954Z,988.81
2023-04-21T11:35:02.948Z,988.84
2023-04-21T11:36:02.994Z,988.89
2023-04-21T11:37:02.986Z,988.77
2023-04-21T11:38:02.911Z,988.71
2023-04-21T11:39:02.948Z,988.81
2023-04-21T11:40:02.923Z,988.75
2023-04-21T11:41:02.890Z,988.78
2023-04-21T11:42:02.936Z,988.76
2023-04-21T11:43:02.877Z,988.72
2023-04-21T11:44:02.924Z,988.71
2023-04-21T11:45:03.724Z,988.76
2023-04-21T11:46:02.870Z,988.70
2023-04-21T11:47:02.852Z,988.72
2023-04-21T11:48:02.871Z,988.83
2023-04-21T11:49:02.868Z,988.70
2023-04-21T11:50:02.844Z,988.75
2023-04-21T11:51:02.799Z,988.71
2023-04-21T11:52:02.782Z,988.64
2023-04-21T11:53:02.798Z,988.71
2023-04-21T11:54:02.829Z,988.63
2023-04-21T11:55:02.803Z,988.49
2023-04-21T11:56:02.770Z,988.50
2023-04-21T11:57:03.006Z,988.50
2023-04-21T11:58:02.781Z,988.52
2023-04-21T11:59:02.778Z,988.57
2023-04-21T12:00:02.802Z,988.57
2023-04-21T12:01:02.724Z,988.52
2023-04-21T12:02:02.734Z,988.51
2023-04-21T12:03:02.801Z,988.61
2023-04-21T12:04:02.807Z,988.55
2023-04-21T12:05:02.857Z,988.54
2023-04-21T12:06:02.766Z,988.52
2023-04-21T12:07:02.670Z,988.45
2023-04-21T12:08:02.621Z,988.41
2023-04-21T12:09:02.601Z,988.52
2023-04-21T12:10:02.594Z,988.42
2023-04-21T12:11:02.594Z,988.48
2023-04-21T12:12:02.628Z,988.41
2023-04-21T12:13:02.598Z,988.44
2023-04-21T12:14:02.554Z,988.34
2023-04-21T12:15:02.604Z,988.37
2023-04-21T12:16:02.585Z,988.33
2023-04-21T12:17:02.586Z,988.42
2023-04-21T12:18:02.569Z,988.33
2023-04-21T12:19:02.573Z,988.40
2023-04-21T12:20:02.522Z,988.39
2023-04-21T12:21:02.491Z,988.44
2023-04-21T12:22:02.498Z,988.44
2023-04-21T12:23:02.497Z,988.45
2023-04-21T12:24:02.513Z,988.42
2023-04-21T12:25:02.472Z,988.37
2023-04-21T12:26:02.476Z,988.44
2023-04-21T12:27:02.465Z,988.43
2023-04-21T12:28:02.438Z,988.44
2023-04-21T12:29:03.272Z,988.45
2023-04-21T12:30:02.445Z,988.38
2023-04-21T12:31:02.452Z,988.50
2023-04-21T12:32:02.690Z,988.31
2023-04-21T12:33:02.564Z,988.35
2023-04-21T12:34:02.574Z,988.48
2023-04-21T12:35:02.401Z,988.43